Airfield :







YOU CAN JOIN US ON...

 
LOGIN :

Register | Disclaimer

   EN    FR    IT 

 









Legend :    VFR   Marginal VFR   IFR   Intensive IFR   Very Intensive IFR
Visi :
Ceiling :
>= 8 km
>= 3000ft
5 to 8 km
1000 to 3000 ft
1500m to 5 km
500 to 1000 ft
800 to 1500m
200 to 500 ft
< 800m
< 200 ft
Symbols :   Thunderstorms  Fog  Heavy snow  Heavy precipitations  Wind > 20 kt






- Airport Elevation : 108 ft
- IATA code : YGP


CYGP - Gaspé

CURRENT METAR :
  • 240000Z 09014G20KT 2SM +RA OVC007 07/07 A2985 RMK SC8 SLP111

EXPIRED METARs :
  • 232300Z 09014G19KT 2SM +RA OVC005 07/07 A2986 RMK SC8 PRESFR SLP116
  • 232211Z 10012G19KT 3SM +RA OVC004 07/07 A2990 RMK SC8 SLP127

TAF TAF CYGP
Valid from the 23 at 20:00 until the 24 at 08:00 UTC


231940Z 2320/2408 11015G25KT P6SM SCT012 OVC025
TEMPO 2320/2321 5SM -RA -DZ BR BKN008 OVC012
FM232100 10015G25KT 6SM -RA BR OVC012
TEMPO 2321/2323 2SM +SHRA BR OVC006
FM232300 10012G22KT 4SM -RA BR OVC008
TEMPO 2323/2404 2SM RA BR OVC003
BECMG 2401/2403 09008KT
FM240400 VRB03KT 2SM -RA BR OVC003
TEMPO 2404/2407 4SM BR OVC008
FM240700 28010G20KT P6SM SCT008 OVC015 RMK NXT FCST BY 240200Z



MET'MAP, your aeronautical weather chart ! - Copyright ORBIFLY December 2007 - Disclaimer

ORBIFLY MET'MAP TEAM :

Programming & Development : Alexandra Zaïnal
Concept & Development : Baudouin d'Aumeries
Co-Development & Prog : Marc-Olivier Méhu
Technical & hardware support : Manuel Goepfert

Contact : metmap@orbifly.com




SOURCES & CREDITS :

   NOAA